sensor_id;sensor_type;location;lat;lon;timestamp;temperature;humidity
45765;DHT22;31474;45.332;10.230;2022-08-23T00:01:34;24.90;97.60
45765;DHT22;31474;45.332;10.230;2022-08-23T00:04:03;24.90;97.20
45765;DHT22;31474;45.332;10.230;2022-08-23T00:06:29;24.80;97.30
45765;DHT22;31474;45.332;10.230;2022-08-23T00:08:56;24.90;97.30
45765;DHT22;31474;45.332;10.230;2022-08-23T00:11:43;24.80;96.80
45765;DHT22;31474;45.332;10.230;2022-08-23T00:14:15;24.90;97.20
45765;DHT22;31474;45.332;10.230;2022-08-23T00:16:42;24.90;96.90
45765;DHT22;31474;45.332;10.230;2022-08-23T00:19:11;24.90;96.40
45765;DHT22;31474;45.332;10.230;2022-08-23T00:21:38;24.90;96.50
45765;DHT22;31474;45.332;10.230;2022-08-23T00:24:05;24.90;96.30
45765;DHT22;31474;45.332;10.230;2022-08-23T00:27:13;24.90;96.30
45765;DHT22;31474;45.332;10.230;2022-08-23T00:29:48;25.00;97.00
45765;DHT22;31474;45.332;10.230;2022-08-23T00:32:17;25.00;96.70
45765;DHT22;31474;45.332;10.230;2022-08-23T00:34:43;24.90;96.40
45765;DHT22;31474;45.332;10.230;2022-08-23T00:37:10;24.90;96.20
45765;DHT22;31474;45.332;10.230;2022-08-23T00:39:37;24.80;96.30
45765;DHT22;31474;45.332;10.230;2022-08-23T00:42:47;24.80;96.20
45765;DHT22;31474;45.332;10.230;2022-08-23T00:45:38;24.80;96.60
45765;DHT22;31474;45.332;10.230;2022-08-23T00:48:24;24.80;96.20
45765;DHT22;31474;45.332;10.230;2022-08-23T00:51:01;24.70;96.30
45765;DHT22;31474;45.332;10.230;2022-08-23T00:53:32;24.60;96.50
45765;DHT22;31474;45.332;10.230;2022-08-23T00:56:00;24.60;96.50
45765;DHT22;31474;45.332;10.230;2022-08-23T00:58:28;24.60;96.50
45765;DHT22;31474;45.332;10.230;2022-08-23T01:00:55;24.50;96.40
45765;DHT22;31474;45.332;10.230;2022-08-23T01:03:24;24.50;96.60
45765;DHT22;31474;45.332;10.230;2022-08-23T01:08:18;24.40;96.60
45765;DHT22;31474;45.332;10.230;2022-08-23T01:10:48;24.40;96.60
45765;DHT22;31474;45.332;10.230;2022-08-23T01:13:26;24.40;96.80
45765;DHT22;31474;45.332;10.230;2022-08-23T01:16:01;24.40;97.00
45765;DHT22;31474;45.332;10.230;2022-08-23T01:18:30;24.40;97.00
45765;DHT22;31474;45.332;10.230;2022-08-23T01:21:10;24.40;96.70
45765;DHT22;31474;45.332;10.230;2022-08-23T01:23:51;24.40;97.40
45765;DHT22;31474;45.332;10.230;2022-08-23T01:26:20;24.30;97.30
45765;DHT22;31474;45.332;10.230;2022-08-23T01:28:46;24.30;97.20
45765;DHT22;31474;45.332;10.230;2022-08-23T01:31:14;24.20;97.10
45765;DHT22;31474;45.332;10.230;2022-08-23T01:33:42;24.20;97.30
45765;DHT22;31474;45.332;10.230;2022-08-23T01:36:12;24.10;97.40
45765;DHT22;31474;45.332;10.230;2022-08-23T01:38:38;24.10;97.50
45765;DHT22;31474;45.332;10.230;2022-08-23T01:41:03;24.10;97.40
45765;DHT22;31474;45.332;10.230;2022-08-23T01:43:31;24.10;97.30
45765;DHT22;31474;45.332;10.230;2022-08-23T01:45:57;24.00;97.40
45765;DHT22;31474;45.332;10.230;2022-08-23T01:48:23;24.00;97.10
45765;DHT22;31474;45.332;10.230;2022-08-23T01:50:49;24.00;97.10
45765;DHT22;31474;45.332;10.230;2022-08-23T01:53:15;24.00;97.20
45765;DHT22;31474;45.332;10.230;2022-08-23T01:55:41;24.00;97.00
45765;DHT22;31474;45.332;10.230;2022-08-23T01:58:08;24.00;97.00
45765;DHT22;31474;45.332;10.230;2022-08-23T02:00:38;24.00;97.00
45765;DHT22;31474;45.332;10.230;2022-08-23T02:03:04;24.00;97.00
45765;DHT22;31474;45.332;10.230;2022-08-23T02:05:31;23.90;97.00
45765;DHT22;31474;45.332;10.230;2022-08-23T02:07:57;23.80;96.80
45765;DHT22;31474;45.332;10.230;2022-08-23T02:10:43;23.80;96.60
45765;DHT22;31474;45.332;10.230;2022-08-23T02:13:08;23.80;96.40
45765;DHT22;31474;45.332;10.230;2022-08-23T02:15:34;23.80;96.40
45765;DHT22;31474;45.332;10.230;2022-08-23T02:18:00;23.80;96.30
45765;DHT22;31474;45.332;10.230;2022-08-23T02:20:26;23.90;96.20
45765;DHT22;31474;45.332;10.230;2022-08-23T02:22:51;23.90;96.20
45765;DHT22;31474;45.332;10.230;2022-08-23T02:25:17;24.00;96.10
45765;DHT22;31474;45.332;10.230;2022-08-23T02:27:42;24.00;96.20
45765;DHT22;31474;45.332;10.230;2022-08-23T02:30:08;24.10;96.10
45765;DHT22;31474;45.332;10.230;2022-08-23T02:32:34;24.20;96.10
45765;DHT22;31474;45.332;10.230;2022-08-23T02:35:00;24.20;96.10
45765;DHT22;31474;45.332;10.230;2022-08-23T02:37:25;24.20;96.10
45765;DHT22;31474;45.332;10.230;2022-08-23T02:39:51;24.20;96.00
45765;DHT22;31474;45.332;10.230;2022-08-23T02:42:17;24.20;96.10
45765;DHT22;31474;45.332;10.230;2022-08-23T02:44:42;24.10;96.00
45765;DHT22;31474;45.332;10.230;2022-08-23T02:47:08;24.00;95.90
45765;DHT22;31474;45.332;10.230;2022-08-23T02:49:36;24.00;95.90
45765;DHT22;31474;45.332;10.230;2022-08-23T02:52:03;24.00;95.90
45765;DHT22;31474;45.332;10.230;2022-08-23T02:54:29;24.00;95.80
45765;DHT22;31474;45.332;10.230;2022-08-23T02:56:55;24.00;95.70
45765;DHT22;31474;45.332;10.230;2022-08-23T02:59:20;23.90;95.80
45765;DHT22;31474;45.332;10.230;2022-08-23T03:01:46;23.80;95.70
45765;DHT22;31474;45.332;10.230;2022-08-23T03:04:12;23.80;95.80
45765;DHT22;31474;45.332;10.230;2022-08-23T03:06:38;23.80;95.80
45765;DHT22;31474;45.332;10.230;2022-08-23T03:09:05;23.80;95.70
45765;DHT22;31474;45.332;10.230;2022-08-23T03:11:32;23.80;95.80
45765;DHT22;31474;45.332;10.230;2022-08-23T03:13:58;23.70;95.80
45765;DHT22;31474;45.332;10.230;2022-08-23T03:16:25;23.70;95.80
45765;DHT22;31474;45.332;10.230;2022-08-23T03:18:51;23.80;95.70
45765;DHT22;31474;45.332;10.230;2022-08-23T03:21:18;23.90;95.60
45765;DHT22;31474;45.332;10.230;2022-08-23T03:23:44;23.80;95.60
45765;DHT22;31474;45.332;10.230;2022-08-23T03:26:12;23.90;95.60
45765;DHT22;31474;45.332;10.230;2022-08-23T03:28:39;23.90;95.50
45765;DHT22;31474;45.332;10.230;2022-08-23T03:31:06;23.80;95.50
45765;DHT22;31474;45.332;10.230;2022-08-23T03:33:32;23.80;95.50
45765;DHT22;31474;45.332;10.230;2022-08-23T03:35:59;23.80;95.50
45765;DHT22;31474;45.332;10.230;2022-08-23T03:38:25;23.80;95.70
45765;DHT22;31474;45.332;10.230;2022-08-23T03:40:51;23.80;95.80
45765;DHT22;31474;45.332;10.230;2022-08-23T03:43:18;23.70;95.80
45765;DHT22;31474;45.332;10.230;2022-08-23T03:45:44;23.60;95.90
45765;DHT22;31474;45.332;10.230;2022-08-23T03:48:09;23.50;95.90
45765;DHT22;31474;45.332;10.230;2022-08-23T03:50:35;23.60;96.00
45765;DHT22;31474;45.332;10.230;2022-08-23T03:53:01;23.40;95.90
45765;DHT22;31474;45.332;10.230;2022-08-23T03:55:27;23.40;96.10
45765;DHT22;31474;45.332;10.230;2022-08-23T03:57:53;23.30;96.20
45765;DHT22;31474;45.332;10.230;2022-08-23T04:00:19;23.20;96.30
45765;DHT22;31474;45.332;10.230;2022-08-23T04:02:45;23.10;96.40
45765;DHT22;31474;45.332;10.230;2022-08-23T04:05:10;23.10;96.30
45765;DHT22;31474;45.332;10.230;2022-08-23T04:07:37;23.10;96.30
45765;DHT22;31474;45.332;10.230;2022-08-23T04:10:05;23.20;96.50
45765;DHT22;31474;45.332;10.230;2022-08-23T04:12:32;23.10;96.50
45765;DHT22;31474;45.332;10.230;2022-08-23T04:14:58;23.20;96.40
45765;DHT22;31474;45.332;10.230;2022-08-23T04:17:24;23.20;96.30
45765;DHT22;31474;45.332;10.230;2022-08-23T04:19:49;23.30;96.40
45765;DHT22;31474;45.332;10.230;2022-08-23T04:22:17;23.30;96.40
45765;DHT22;31474;45.332;10.230;2022-08-23T04:24:44;23.30;96.40
45765;DHT22;31474;45.332;10.230;2022-08-23T04:27:09;23.30;96.40
45765;DHT22;31474;45.332;10.230;2022-08-23T04:29:35;23.30;96.50
45765;DHT22;31474;45.332;10.230;2022-08-23T04:32:04;23.30;96.50
45765;DHT22;31474;45.332;10.230;2022-08-23T04:34:30;23.30;96.60
45765;DHT22;31474;45.332;10.230;2022-08-23T04:36:57;23.30;96.60
45765;DHT22;31474;45.332;10.230;2022-08-23T04:39:22;23.30;96.60
45765;DHT22;31474;45.332;10.230;2022-08-23T04:41:48;23.30;96.60
45765;DHT22;31474;45.332;10.230;2022-08-23T04:44:32;23.40;96.70
45765;DHT22;31474;45.332;10.230;2022-08-23T04:46:58;23.40;96.60
45765;DHT22;31474;45.332;10.230;2022-08-23T04:49:23;23.40;96.60
45765;DHT22;31474;45.332;10.230;2022-08-23T04:51:49;23.40;96.60
45765;DHT22;31474;45.332;10.230;2022-08-23T04:54:15;23.40;96.70
45765;DHT22;31474;45.332;10.230;2022-08-23T04:56:41;23.50;96.80
45765;DHT22;31474;45.332;10.230;2022-08-23T04:59:07;23.50;97.00
45765;DHT22;31474;45.332;10.230;2022-08-23T05:01:34;23.40;96.80
45765;DHT22;31474;45.332;10.230;2022-08-23T05:04:00;23.40;96.90
45765;DHT22;31474;45.332;10.230;2022-08-23T05:06:27;23.40;97.00
45765;DHT22;31474;45.332;10.230;2022-08-23T05:08:54;23.50;97.10
45765;DHT22;31474;45.332;10.230;2022-08-23T05:11:20;23.50;97.00
45765;DHT22;31474;45.332;10.230;2022-08-23T05:13:46;23.60;97.10
45765;DHT22;31474;45.332;10.230;2022-08-23T05:16:12;23.60;96.90
45765;DHT22;31474;45.332;10.230;2022-08-23T05:18:38;23.50;97.10
45765;DHT22;31474;45.332;10.230;2022-08-23T05:21:04;23.60;97.00
45765;DHT22;31474;45.332;10.230;2022-08-23T05:23:31;23.60;97.00
45765;DHT22;31474;45.332;10.230;2022-08-23T05:25:56;23.60;97.10
45765;DHT22;31474;45.332;10.230;2022-08-23T05:28:31;23.70;97.10
45765;DHT22;31474;45.332;10.230;2022-08-23T05:30:59;23.70;97.20
45765;DHT22;31474;45.332;10.230;2022-08-23T05:33:26;23.90;97.20
45765;DHT22;31474;45.332;10.230;2022-08-23T05:35:52;24.00;97.00
45765;DHT22;31474;45.332;10.230;2022-08-23T05:38:18;24.20;97.10
45765;DHT22;31474;45.332;10.230;2022-08-23T05:40:50;24.30;96.90
45765;DHT22;31474;45.332;10.230;2022-08-23T05:43:17;24.40;96.80
45765;DHT22;31474;45.332;10.230;2022-08-23T05:45:44;24.40;96.90
45765;DHT22;31474;45.332;10.230;2022-08-23T05:48:10;24.50;96.90
45765;DHT22;31474;45.332;10.230;2022-08-23T05:50:36;24.60;96.90
45765;DHT22;31474;45.332;10.230;2022-08-23T05:53:02;24.80;96.80
45765;DHT22;31474;45.332;10.230;2022-08-23T05:55:28;24.80;96.90
45765;DHT22;31474;45.332;10.230;2022-08-23T05:57:54;25.00;96.70
45765;DHT22;31474;45.332;10.230;2022-08-23T06:00:20;25.10;96.70
45765;DHT22;31474;45.332;10.230;2022-08-23T06:02:47;25.20;96.80
45765;DHT22;31474;45.332;10.230;2022-08-23T06:05:14;25.30;97.10
45765;DHT22;31474;45.332;10.230;2022-08-23T06:07:40;25.30;97.20
45765;DHT22;31474;45.332;10.230;2022-08-23T06:10:07;25.40;97.00
45765;DHT22;31474;45.332;10.230;2022-08-23T06:12:34;25.70;96.90
45765;DHT22;31474;45.332;10.230;2022-08-23T06:15:00;25.70;96.60
45765;DHT22;31474;45.332;10.230;2022-08-23T06:17:26;25.70;96.60
45765;DHT22;31474;45.332;10.230;2022-08-23T06:19:52;25.60;96.40
45765;DHT22;31474;45.332;10.230;2022-08-23T06:22:18;25.80;96.60
45765;DHT22;31474;45.332;10.230;2022-08-23T06:24:44;25.70;96.40
45765;DHT22;31474;45.332;10.230;2022-08-23T06:27:10;25.70;96.40
45765;DHT22;31474;45.332;10.230;2022-08-23T06:29:36;25.80;96.40
45765;DHT22;31474;45.332;10.230;2022-08-23T06:32:03;25.90;96.30
45765;DHT22;31474;45.332;10.230;2022-08-23T06:34:35;25.90;96.40
45765;DHT22;31474;45.332;10.230;2022-08-23T06:37:04;26.00;96.40
45765;DHT22;31474;45.332;10.230;2022-08-23T06:39:31;26.10;96.30
45765;DHT22;31474;45.332;10.230;2022-08-23T06:42:08;26.00;96.30
45765;DHT22;31474;45.332;10.230;2022-08-23T06:44:34;26.10;96.60
45765;DHT22;31474;45.332;10.230;2022-08-23T06:47:02;26.10;96.40
45765;DHT22;31474;45.332;10.230;2022-08-23T06:49:28;26.20;96.50
45765;DHT22;31474;45.332;10.230;2022-08-23T06:51:56;26.30;96.40
45765;DHT22;31474;45.332;10.230;2022-08-23T06:54:25;26.50;96.30
45765;DHT22;31474;45.332;10.230;2022-08-23T06:56:51;26.70;96.30
45765;DHT22;31474;45.332;10.230;2022-08-23T06:59:18;26.70;96.20
45765;DHT22;31474;45.332;10.230;2022-08-23T07:04:14;26.50;96.30
45765;DHT22;31474;45.332;10.230;2022-08-23T07:06:40;26.60;96.40
45765;DHT22;31474;45.332;10.230;2022-08-23T07:09:06;26.70;96.30
45765;DHT22;31474;45.332;10.230;2022-08-23T07:11:32;26.80;96.10
45765;DHT22;31474;45.332;10.230;2022-08-23T07:13:59;26.70;96.00
45765;DHT22;31474;45.332;10.230;2022-08-23T07:16:34;26.90;96.20
45765;DHT22;31474;45.332;10.230;2022-08-23T07:19:00;27.10;95.90
45765;DHT22;31474;45.332;10.230;2022-08-23T07:21:25;27.20;95.90
45765;DHT22;31474;45.332;10.230;2022-08-23T07:23:51;27.20;95.80
45765;DHT22;31474;45.332;10.230;2022-08-23T07:26:18;27.30;95.60
45765;DHT22;31474;45.332;10.230;2022-08-23T07:28:44;27.40;95.60
45765;DHT22;31474;45.332;10.230;2022-08-23T07:31:12;27.50;95.30
45765;DHT22;31474;45.332;10.230;2022-08-23T07:33:38;27.50;95.20
45765;DHT22;31474;45.332;10.230;2022-08-23T07:36:05;27.50;95.30
45765;DHT22;31474;45.332;10.230;2022-08-23T07:38:31;27.60;95.20
45765;DHT22;31474;45.332;10.230;2022-08-23T07:40:57;27.70;94.90
45765;DHT22;31474;45.332;10.230;2022-08-23T07:43:23;27.70;95.00
45765;DHT22;31474;45.332;10.230;2022-08-23T07:45:49;27.70;94.70
45765;DHT22;31474;45.332;10.230;2022-08-23T07:48:15;27.60;94.70
45765;DHT22;31474;45.332;10.230;2022-08-23T07:50:40;27.70;94.60
45765;DHT22;31474;45.332;10.230;2022-08-23T07:53:07;27.90;94.30
45765;DHT22;31474;45.332;10.230;2022-08-23T07:55:33;28.10;94.40
45765;DHT22;31474;45.332;10.230;2022-08-23T07:57:59;28.20;94.20
45765;DHT22;31474;45.332;10.230;2022-08-23T08:00:25;28.30;94.40
45765;DHT22;31474;45.332;10.230;2022-08-23T08:02:51;28.50;94.10
45765;DHT22;31474;45.332;10.230;2022-08-23T08:05:17;28.60;94.40
45765;DHT22;31474;45.332;10.230;2022-08-23T08:07:43;28.70;93.40
45765;DHT22;31474;45.332;10.230;2022-08-23T08:10:09;28.70;93.50
45765;DHT22;31474;45.332;10.230;2022-08-23T08:12:36;28.70;93.50
45765;DHT22;31474;45.332;10.230;2022-08-23T08:15:02;28.70;92.90
45765;DHT22;31474;45.332;10.230;2022-08-23T08:17:27;28.80;92.70
45765;DHT22;31474;45.332;10.230;2022-08-23T08:19:53;28.80;93.20
45765;DHT22;31474;45.332;10.230;2022-08-23T08:22:19;28.90;93.20
45765;DHT22;31474;45.332;10.230;2022-08-23T08:24:44;28.90;92.30
45765;DHT22;31474;45.332;10.230;2022-08-23T08:27:10;29.00;92.50
45765;DHT22;31474;45.332;10.230;2022-08-23T08:29:36;29.20;91.90
45765;DHT22;31474;45.332;10.230;2022-08-23T08:32:02;29.10;91.70
45765;DHT22;31474;45.332;10.230;2022-08-23T08:34:28;29.00;91.70
45765;DHT22;31474;45.332;10.230;2022-08-23T08:36:56;29.30;92.20
45765;DHT22;31474;45.332;10.230;2022-08-23T08:39:26;29.50;91.40
45765;DHT22;31474;45.332;10.230;2022-08-23T08:42:08;29.20;90.20
45765;DHT22;31474;45.332;10.230;2022-08-23T08:47:49;29.10;89.40
45765;DHT22;31474;45.332;10.230;2022-08-23T08:50:25;29.20;90.20
45765;DHT22;31474;45.332;10.230;2022-08-23T08:53:13;29.30;89.80
45765;DHT22;31474;45.332;10.230;2022-08-23T08:55:46;29.50;89.80
45765;DHT22;31474;45.332;10.230;2022-08-23T08:58:27;29.50;88.80
45765;DHT22;31474;45.332;10.230;2022-08-23T09:00:54;29.60;89.70
45765;DHT22;31474;45.332;10.230;2022-08-23T09:03:21;29.80;90.50
45765;DHT22;31474;45.332;10.230;2022-08-23T09:08:48;30.00;90.70
45765;DHT22;31474;45.332;10.230;2022-08-23T09:14:18;29.70;90.90
45765;DHT22;31474;45.332;10.230;2022-08-23T09:16:53;29.80;89.30
45765;DHT22;31474;45.332;10.230;2022-08-23T09:19:20;29.90;90.70
45765;DHT22;31474;45.332;10.230;2022-08-23T09:21:53;30.10;91.00
45765;DHT22;31474;45.332;10.230;2022-08-23T09:24:20;30.10;90.60
45765;DHT22;31474;45.332;10.230;2022-08-23T09:26:47;30.20;90.50
45765;DHT22;31474;45.332;10.230;2022-08-23T09:29:27;29.90;89.80
45765;DHT22;31474;45.332;10.230;2022-08-23T09:31:58;30.20;90.20
45765;DHT22;31474;45.332;10.230;2022-08-23T09:39:36;30.40;88.10
45765;DHT22;31474;45.332;10.230;2022-08-23T09:42:03;30.30;87.60
45765;DHT22;31474;45.332;10.230;2022-08-23T09:44:35;30.30;88.80
45765;DHT22;31474;45.332;10.230;2022-08-23T09:47:19;30.30;88.50
45765;DHT22;31474;45.332;10.230;2022-08-23T09:49:46;30.20;88.00
45765;DHT22;31474;45.332;10.230;2022-08-23T09:52:32;30.30;89.60
45765;DHT22;31474;45.332;10.230;2022-08-23T09:55:01;30.20;87.60
45765;DHT22;31474;45.332;10.230;2022-08-23T09:57:32;30.20;88.20
45765;DHT22;31474;45.332;10.230;2022-08-23T10:02:49;30.30;85.10
45765;DHT22;31474;45.332;10.230;2022-08-23T10:05:18;30.30;86.90
45765;DHT22;31474;45.332;10.230;2022-08-23T10:07:59;30.40;87.90
45765;DHT22;31474;45.332;10.230;2022-08-23T10:10:39;30.50;84.80
45765;DHT22;31474;45.332;10.230;2022-08-23T10:13:12;30.40;82.90
45765;DHT22;31474;45.332;10.230;2022-08-23T10:19:08;30.60;84.50
45765;DHT22;31474;45.332;10.230;2022-08-23T10:21:06;30.60;86.10
45765;DHT22;31474;45.332;10.230;2022-08-23T10:26:41;30.60;86.60
45765;DHT22;31474;45.332;10.230;2022-08-23T10:29:20;30.50;87.90
45765;DHT22;31474;45.332;10.230;2022-08-23T10:32:31;30.50;88.80
45765;DHT22;31474;45.332;10.230;2022-08-23T10:35:23;30.70;89.80
45765;DHT22;31474;45.332;10.230;2022-08-23T10:38:00;30.70;89.10
45765;DHT22;31474;45.332;10.230;2022-08-23T10:40:49;30.70;88.70
45765;DHT22;31474;45.332;10.230;2022-08-23T10:43:50;30.60;87.80
45765;DHT22;31474;45.332;10.230;2022-08-23T10:46:19;30.70;89.10
45765;DHT22;31474;45.332;10.230;2022-08-23T10:49:06;30.90;89.10
45765;DHT22;31474;45.332;10.230;2022-08-23T10:51:39;30.90;87.60
45765;DHT22;31474;45.332;10.230;2022-08-23T10:54:18;30.90;88.40
45765;DHT22;31474;45.332;10.230;2022-08-23T10:56:53;30.90;87.50
45765;DHT22;31474;45.332;10.230;2022-08-23T10:59:25;31.00;86.60
45765;DHT22;31474;45.332;10.230;2022-08-23T11:02:28;30.90;85.20
45765;DHT22;31474;45.332;10.230;2022-08-23T11:04:55;30.80;84.60
45765;DHT22;31474;45.332;10.230;2022-08-23T11:07:32;30.80;86.90
45765;DHT22;31474;45.332;10.230;2022-08-23T11:12:32;31.00;85.50
45765;DHT22;31474;45.332;10.230;2022-08-23T11:34:20;31.00;84.70
45765;DHT22;31474;45.332;10.230;2022-08-23T11:42:45;31.10;80.60
45765;DHT22;31474;45.332;10.230;2022-08-23T11:45:38;31.20;81.80
45765;DHT22;31474;45.332;10.230;2022-08-23T11:48:18;31.20;79.80
45765;DHT22;31474;45.332;10.230;2022-08-23T11:53:29;31.20;80.10
45765;DHT22;31474;45.332;10.230;2022-08-23T11:59:19;31.10;80.40
45765;DHT22;31474;45.332;10.230;2022-08-23T12:01:46;31.20;79.50
45765;DHT22;31474;45.332;10.230;2022-08-23T12:04:40;31.30;81.00
45765;DHT22;31474;45.332;10.230;2022-08-23T12:07:06;31.20;76.30
45765;DHT22;31474;45.332;10.230;2022-08-23T12:12:32;31.20;78.10
45765;DHT22;31474;45.332;10.230;2022-08-23T12:15:03;31.30;77.10
45765;DHT22;31474;45.332;10.230;2022-08-23T12:20:09;31.30;76.40
45765;DHT22;31474;45.332;10.230;2022-08-23T12:25:21;31.30;75.30
45765;DHT22;31474;45.332;10.230;2022-08-23T12:33:58;31.30;71.20
45765;DHT22;31474;45.332;10.230;2022-08-23T12:36:47;31.30;71.10
45765;DHT22;31474;45.332;10.230;2022-08-23T12:39:33;31.30;73.70
45765;DHT22;31474;45.332;10.230;2022-08-23T12:42:17;31.40;73.50
45765;DHT22;31474;45.332;10.230;2022-08-23T12:44:46;31.40;72.70
45765;DHT22;31474;45.332;10.230;2022-08-23T12:47:17;31.50;73.60
45765;DHT22;31474;45.332;10.230;2022-08-23T12:50:06;31.50;71.90
45765;DHT22;31474;45.332;10.230;2022-08-23T12:52:35;31.40;71.80
45765;DHT22;31474;45.332;10.230;2022-08-23T12:55:02;31.40;74.70
45765;DHT22;31474;45.332;10.230;2022-08-23T12:57:39;31.50;74.90
45765;DHT22;31474;45.332;10.230;2022-08-23T13:02:48;31.50;74.10
45765;DHT22;31474;45.332;10.230;2022-08-23T13:07:54;31.60;69.50
45765;DHT22;31474;45.332;10.230;2022-08-23T13:10:20;31.60;69.90
45765;DHT22;31474;45.332;10.230;2022-08-23T13:12:45;31.60;71.90
45765;DHT22;31474;45.332;10.230;2022-08-23T13:15:11;31.60;72.40
45765;DHT22;31474;45.332;10.230;2022-08-23T13:17:38;31.70;72.60
45765;DHT22;31474;45.332;10.230;2022-08-23T13:20:12;31.60;69.10
45765;DHT22;31474;45.332;10.230;2022-08-23T13:25:28;31.70;65.00
45765;DHT22;31474;45.332;10.230;2022-08-23T13:27:56;31.70;66.20
45765;DHT22;31474;45.332;10.230;2022-08-23T13:30:25;31.80;67.50
45765;DHT22;31474;45.332;10.230;2022-08-23T13:35:39;31.60;67.00
45765;DHT22;31474;45.332;10.230;2022-08-23T13:38:19;31.60;70.10
45765;DHT22;31474;45.332;10.230;2022-08-23T13:41:06;31.70;67.90
45765;DHT22;31474;45.332;10.230;2022-08-23T13:43:35;31.60;67.10
45765;DHT22;31474;45.332;10.230;2022-08-23T13:46:28;31.50;68.20
45765;DHT22;31474;45.332;10.230;2022-08-23T13:48:57;31.40;67.00
45765;DHT22;31474;45.332;10.230;2022-08-23T13:53:56;31.50;69.00
45765;DHT22;31474;45.332;10.230;2022-08-23T13:56:24;31.60;70.20
45765;DHT22;31474;45.332;10.230;2022-08-23T13:59:00;31.60;70.10
45765;DHT22;31474;45.332;10.230;2022-08-23T14:01:27;31.60;69.70
45765;DHT22;31474;45.332;10.230;2022-08-23T14:03:53;31.60;70.90
45765;DHT22;31474;45.332;10.230;2022-08-23T14:06:19;31.60;71.90
45765;DHT22;31474;45.332;10.230;2022-08-23T14:08:45;31.50;72.20
45765;DHT22;31474;45.332;10.230;2022-08-23T14:11:11;31.40;71.50
45765;DHT22;31474;45.332;10.230;2022-08-23T14:13:42;31.40;72.20
45765;DHT22;31474;45.332;10.230;2022-08-23T14:16:20;31.50;71.80
45765;DHT22;31474;45.332;10.230;2022-08-23T14:18:48;31.60;71.60
45765;DHT22;31474;45.332;10.230;2022-08-23T14:21:13;31.60;69.90
45765;DHT22;31474;45.332;10.230;2022-08-23T14:23:39;31.60;71.50
45765;DHT22;31474;45.332;10.230;2022-08-23T14:26:05;31.50;72.10
45765;DHT22;31474;45.332;10.230;2022-08-23T14:28:30;31.40;72.30
45765;DHT22;31474;45.332;10.230;2022-08-23T14:30:56;31.60;72.70
45765;DHT22;31474;45.332;10.230;2022-08-23T14:33:22;31.60;72.10
45765;DHT22;31474;45.332;10.230;2022-08-23T14:35:48;31.60;72.20
45765;DHT22;31474;45.332;10.230;2022-08-23T14:38:14;31.60;71.20
45765;DHT22;31474;45.332;10.230;2022-08-23T14:40:51;31.50;71.60
45765;DHT22;31474;45.332;10.230;2022-08-23T14:43:18;31.50;68.30
45765;DHT22;31474;45.332;10.230;2022-08-23T14:45:44;31.50;70.50
45765;DHT22;31474;45.332;10.230;2022-08-23T14:48:10;31.40;71.00
45765;DHT22;31474;45.332;10.230;2022-08-23T14:50:36;31.40;72.00
45765;DHT22;31474;45.332;10.230;2022-08-23T14:53:03;31.40;71.60
45765;DHT22;31474;45.332;10.230;2022-08-23T14:55:29;31.40;71.80
45765;DHT22;31474;45.332;10.230;2022-08-23T14:57:55;31.40;72.60
45765;DHT22;31474;45.332;10.230;2022-08-23T15:00:21;31.40;72.90
45765;DHT22;31474;45.332;10.230;2022-08-23T15:02:47;31.40;73.00
45765;DHT22;31474;45.332;10.230;2022-08-23T15:05:15;31.40;73.10
45765;DHT22;31474;45.332;10.230;2022-08-23T15:07:41;31.40;72.90
45765;DHT22;31474;45.332;10.230;2022-08-23T15:10:08;31.40;73.00
45765;DHT22;31474;45.332;10.230;2022-08-23T15:12:34;31.40;73.00
45765;DHT22;31474;45.332;10.230;2022-08-23T15:15:01;31.30;73.20
45765;DHT22;31474;45.332;10.230;2022-08-23T15:17:27;31.40;72.30
45765;DHT22;31474;45.332;10.230;2022-08-23T15:19:53;31.30;70.90
45765;DHT22;31474;45.332;10.230;2022-08-23T15:22:18;31.30;72.20
45765;DHT22;31474;45.332;10.230;2022-08-23T15:24:44;31.30;72.60
45765;DHT22;31474;45.332;10.230;2022-08-23T15:27:10;31.30;73.20
45765;DHT22;31474;45.332;10.230;2022-08-23T15:29:35;31.40;72.60
45765;DHT22;31474;45.332;10.230;2022-08-23T15:32:01;31.30;72.90
45765;DHT22;31474;45.332;10.230;2022-08-23T15:34:27;31.30;72.90
45765;DHT22;31474;45.332;10.230;2022-08-23T15:36:52;31.20;73.50
45765;DHT22;31474;45.332;10.230;2022-08-23T15:39:18;31.20;73.50
45765;DHT22;31474;45.332;10.230;2022-08-23T15:41:44;31.10;74.20
45765;DHT22;31474;45.332;10.230;2022-08-23T15:44:09;31.10;74.20
45765;DHT22;31474;45.332;10.230;2022-08-23T15:46:36;31.10;75.00
45765;DHT22;31474;45.332;10.230;2022-08-23T15:49:11;31.10;75.20
45765;DHT22;31474;45.332;10.230;2022-08-23T15:51:38;31.10;74.10
45765;DHT22;31474;45.332;10.230;2022-08-23T15:54:04;31.00;74.90
45765;DHT22;31474;45.332;10.230;2022-08-23T15:56:35;31.00;75.50
45765;DHT22;31474;45.332;10.230;2022-08-23T15:59:03;30.90;74.10
45765;DHT22;31474;45.332;10.230;2022-08-23T16:01:29;30.90;74.20
45765;DHT22;31474;45.332;10.230;2022-08-23T16:03:58;30.90;75.40
45765;DHT22;31474;45.332;10.230;2022-08-23T16:06:24;30.80;73.40
45765;DHT22;31474;45.332;10.230;2022-08-23T16:08:51;30.80;74.40
45765;DHT22;31474;45.332;10.230;2022-08-23T16:11:18;30.90;74.90
45765;DHT22;31474;45.332;10.230;2022-08-23T16:13:45;30.90;74.70
45765;DHT22;31474;45.332;10.230;2022-08-23T16:16:24;30.80;74.30
45765;DHT22;31474;45.332;10.230;2022-08-23T16:18:52;30.80;73.70
45765;DHT22;31474;45.332;10.230;2022-08-23T16:21:19;30.80;74.60
45765;DHT22;31474;45.332;10.230;2022-08-23T16:23:45;30.80;73.90
45765;DHT22;31474;45.332;10.230;2022-08-23T16:26:15;30.80;74.30
45765;DHT22;31474;45.332;10.230;2022-08-23T16:28:43;30.70;73.00
45765;DHT22;31474;45.332;10.230;2022-08-23T16:31:09;30.70;74.80
45765;DHT22;31474;45.332;10.230;2022-08-23T16:33:35;30.60;75.30
45765;DHT22;31474;45.332;10.230;2022-08-23T16:36:01;30.60;74.90
45765;DHT22;31474;45.332;10.230;2022-08-23T16:38:26;30.60;75.50
45765;DHT22;31474;45.332;10.230;2022-08-23T16:40:52;30.50;75.50
45765;DHT22;31474;45.332;10.230;2022-08-23T16:43:18;30.50;75.60
45765;DHT22;31474;45.332;10.230;2022-08-23T16:45:43;30.50;75.30
45765;DHT22;31474;45.332;10.230;2022-08-23T16:48:09;30.50;75.20
45765;DHT22;31474;45.332;10.230;2022-08-23T16:50:35;30.50;74.80
45765;DHT22;31474;45.332;10.230;2022-08-23T16:53:00;30.40;75.80
45765;DHT22;31474;45.332;10.230;2022-08-23T16:55:27;30.40;75.80
45765;DHT22;31474;45.332;10.230;2022-08-23T16:57:52;30.30;75.70